• Join FlightAware (Why Join?)
  • Login
  • US Flag 
08:58AM EST


 

Airport Tracker/Info


-or-


 

Live Flight TrackerFlight Track Log ✈ SLI2051 ✈ 30-Apr-2012 ✈ MMMY / MTY - MMHO / HMO

Flight Track Log - Related Links

Times and Time Zones

All times are in EDT time to prevent confusion due to time zone crossing. See the SLI2051 flight status page for this flight to view local times or setup timezone preferences in your user account.

Time Position Orientation Groundspeed Altitude Reporting Facility
EDT Latitude Longitude Course Direction KTS MPH feet Rate Location/Type
08:18AM 25.7880 -100.1339 291° West  Level Estimated
08:19AM 25.8260 -100.2422 291° West  Level Estimated
08:20AM 25.8639 -100.3505 291° West  Level Estimated
08:21AM 25.9017 -100.4589 291° West  Level Estimated
08:22AM 25.9395 -100.5674 291° West  Level Estimated
08:23AM 25.9771 -100.6759 291° West  Level Estimated
08:24AM 26.0147 -100.7845 291° West  Level Estimated
08:25AM 26.0522 -100.8931 291° West  Level Estimated
08:26AM 26.0897 -101.0019 291° West  Level Estimated
08:27AM 26.1270 -101.1107 291° West  Level Estimated
08:28AM 26.1643 -101.2196 291° West  Level Estimated
08:29AM 26.2015 -101.3285 291° West  Level Estimated
08:30AM 26.2386 -101.4375 291° West  Level Estimated
08:31AM 26.2756 -101.5466 291° West  Level Estimated
08:32AM 26.3125 -101.6557 291° West  Level Estimated
08:33AM 26.3494 -101.7650 291° West  Level Estimated
08:34AM 26.3862 -101.8743 291° West  Level Estimated
08:35AM 26.4228 -101.9836 291° West  Level Estimated
08:36AM 26.4594 -102.0930 290° West  Level Estimated
08:37AM 26.4960 -102.2025 290° West  Level Estimated
08:38AM 26.5324 -102.3121 290° West  Level Estimated
08:39AM 26.5688 -102.4218 290° West  Level Estimated
08:40AM 26.6050 -102.5315 290° West  Level Estimated
08:41AM 26.6412 -102.6412 290° West  Level Estimated
08:42AM 26.6773 -102.7511 290° West  Level Estimated
08:43AM 26.7133 -102.8610 290° West  Level Estimated
08:44AM 26.7492 -102.9710 290° West  Level Estimated
08:45AM 26.7851 -103.0810 290° West  Level Estimated
08:46AM 26.8209 -103.1912 290° West  Level Estimated
08:47AM 26.8565 -103.3014 290° West  Level Estimated
08:48AM 26.8921 -103.4116 290° West  Level Estimated
08:49AM 26.9276 -103.5220 290° West  Level Estimated
08:50AM 26.9630 -103.6324 290° West  Level Estimated
08:51AM 26.9984 -103.7428 290° West  Level Estimated
08:52AM 27.0336 -103.8534 290° West  Level Estimated
08:53AM 27.0688 -103.9640 290° West  Level Estimated
08:54AM 27.1038 -104.0747 290° West  Level Estimated
08:55AM 27.1388 -104.1854 290° West  Level Estimated
08:56AM 27.1737 -104.2962 289° West  Level Estimated
08:57AM 27.2085 -104.4071 289° West  Level Estimated
08:58AM 27.2433 -104.5181 289° West  Level Estimated
08:59AM 27.2779 -104.6291 289° West  Level Estimated
09:00AM 27.3125 -104.7402 289° West  Level Estimated
09:01AM 27.3469 -104.8514 289° West  Level Estimated
09:02AM 27.3813 -104.9626 289° West  Level Estimated
09:03AM 27.4156 -105.0739 289° West  Level Estimated
09:04AM 27.4498 -105.1853 289° West  Level Estimated
09:05AM 27.4839 -105.2967 289° West  Level Estimated
09:06AM 27.5179 -105.4082 289° West  Level Estimated
09:07AM 27.5518 -105.5198 289° West  Level Estimated
09:08AM 27.5857 -105.6315 289° West  Level Estimated
09:09AM 27.6194 -105.7432 289° West  Level Estimated
09:10AM 27.6531 -105.8550 289° West  Level Estimated
09:11AM 27.6867 -105.9668 289° West  Level Estimated
09:12AM 27.7201 -106.0788 289° West  Level Estimated
09:13AM 27.7535 -106.1907 289° West  Level Estimated
09:14AM 27.7868 -106.3028 289° West  Level Estimated
09:15AM 27.8200 -106.4149 288° West  Level Estimated
09:16AM 27.8532 -106.5271 288° West  Level Estimated
09:17AM 27.8862 -106.6394 288° West  Level Estimated
09:18AM 27.9191 -106.7517 288° West  Level Estimated
09:19AM 27.9520 -106.8641 288° West  Level Estimated
09:20AM 27.9847 -106.9766 288° West  Level Estimated
09:21AM 28.0174 -107.0891 288° West  Level Estimated
09:22AM 28.0500 -107.2018 288° West  Level Estimated
09:23AM 28.0825 -107.3144 288° West  Level Estimated
09:24AM 28.1148 -107.4272 288° West  Level Estimated
09:25AM 28.1471 -107.5400 288° West  Level Estimated
09:26AM 28.1793 -107.6529 288° West  Level Estimated
09:27AM 28.2115 -107.7658 288° West  Level Estimated
09:28AM 28.2435 -107.8788 288° West  Level Estimated
09:29AM 28.2754 -107.9919 288° West  Level Estimated
09:30AM 28.3072 -108.1051 288° West  Level Estimated
09:31AM 28.3390 -108.2183 288° West  Level Estimated
09:32AM 28.3706 -108.3316 288° West  Level Estimated
09:33AM 28.4022 -108.4449 288° West  Level Estimated
09:34AM 28.4336 -108.5583 287° West  Level Estimated
09:35AM 28.4650 -108.6718 287° West  Level Estimated
09:36AM 28.4963 -108.7854 287° West  Level Estimated
09:37AM 28.5275 -108.8990 287° West  Level Estimated
09:38AM 28.5585 -109.0127 287° West  Level Estimated
09:39AM 28.5895 -109.1264 287° West  Level Estimated
09:40AM 28.6204 -109.2403 287° West  Level Estimated
09:41AM 28.6512 -109.3542 287° West  Level Estimated
09:42AM 28.6819 -109.4681 287° West  Level Estimated
09:43AM 28.7125 -109.5821 287° West  Level Estimated
09:44AM 28.7430 -109.6962 287° West  Level Estimated
09:45AM 28.7735 -109.8104 287° West  Level Estimated
09:46AM 28.8038 -109.9246 287° West  Level Estimated
09:47AM 28.8340 -110.0389 287° West  Level Estimated
09:48AM 28.8641 -110.1532 287° West  Level Estimated
09:49AM 28.8941 -110.2677 287° West  Level Estimated
09:50AM 28.9241 -110.3821 287° West  Level Estimated
09:51AM 28.9539 -110.4967 287° West  Level Estimated
09:52AM 28.9837 -110.6113 286° West  Level Estimated
09:53AM 29.0133 -110.7260 286° West  Level Estimated
09:54AM 29.0428 -110.8408 286° West  Level Estimated
09:55AM 29.0723 -110.9556 286° West  Level Estimated
09:56AM 29.1016 -111.0705 106° East  Level Estimated
09:57AM 29.0723 -110.9556 286° West  Level Estimated
09:58AM 29.1016 -111.0705 106° East  Level Estimated
09:59AM 29.0723 -110.9556 286° West  Level Estimated
10:00AM 29.1016 -111.0705 106° East  Level Estimated
10:01AM 29.0723 -110.9556 286° West  Level Estimated
10:02AM 29.1016 -111.0705 106° East  Level Estimated
10:03AM 29.0723 -110.9556 286° West  Level Estimated
10:04AM 29.1016 -111.0705 106° East  Level Estimated
10:05AM 29.0723 -110.9556 286° West  Level Estimated
10:06AM 29.1016 -111.0705 106° East  Level Estimated
10:07AM 29.0723 -110.9556 286° West  Level Estimated
10:08AM 29.1016 -111.0705 106° East  Level Estimated
10:09AM 29.0723 -110.9556 286° West  Level Estimated
10:10AM 29.1016 -111.0705 106° East  Level Estimated
10:11AM 29.0723 -110.9556 106° East  Level Estimated